MXGP 2015 Spagna. Cairoli: debutto vincente

MXGP 2015 Spagna. Cairoli: debutto vincente
Massimo Zanzani
Il messinese conferma la scelta della 450 aggiudicandosi la sua prima vittoria stagionale davanti a Nagl e Febvre nel GP di Spagna; sorprendente affermazione di Guillod nella MX2
10 maggio 2015

I dubbi sono fugati: la 450 è quella che quest’anno ci vuole per vincere. Antonio Cairoli se lo sentiva, e per questo ha girato molto quest’inverno con cilindrata più gettonata della classe regina, ma poi l’indecisione di prendere una strada incognita ha fatto preferire la collaudata e pur sempre competitiva 350 con cui si è aggiudicato i suo cinque titoli iridati nella MXGP. Col passare dei GP però il ritmo impressionante di quest’anno, che ha praticamente messo a KO persino un campione come Ryan Villopoto, e il cambio di fisionomia delle piste sempre meno tecniche e difficili, ha fatto riprendere in considerazione la possibilità di avere quel qualcosa di più che evidentemente Tony sapeva di necessitare per puntare al suo obbiettivo.

Detto e fatto, visto che miglior esordio con la sua KTM quattroemezzo non poteva avere considerando che dopo essersi imposto nella manche di qualificazione ha fatto suo il gradino più alto del podio al termine delle due manche della gara ufficiale. Nella prima è partito sesto ma dopo una decina di minuti ancora non abituato alla potenza della sua moto è rimasto a corto di energie e dopo essere rimontato sino a terzo, pur avendo accorciato le distanza si è accontentato della terza piazza visto tra l’altro il passo del battistrada Max Nagl e di Clement Desalle.

Nella seconda invece è partito in testa e ha mantenuto il comando per un paio di giri ma poi un paio di errori hanno permesso a Romain Febvre a scavalcarlo. Il francese ha tenuto duro per cinque passaggi ma poi ha pasticciato a sua volta permettendo a Tony di riprendersi la posizione che ha mantenuto questa volta sino al traguardo dove ha preceduto l’ufficiale Yamaha e Nagl il quale ha così mantenuto la leadership del campionato con lo stesso di vantaggio di 30 punti da Cairoli che aveva prima della tappa iberica.

Febvre si è aggiudicato il suo primo podio in carriera nella MXGP, con un significativo terzo posto davanti a Desalle, che al secondo posto di Gara 1 ha affiancato il quinto nella successiva a causa di una caduta, Bobryshev e Paulin questa volta limitato da brutte partenza e una pista poco facile per i sorpassi. Buon 10° per Alex Lupino, che lentamente comincia a riprendersi dal lungo periodo di assenza dalle gare, mentre David Philippaerts dopo il 13° posto della frazione iniziale ha chiuso in anticipo la seconda prova per un colpo alla mano rimediato nella bagarre inziale.

Ancora un risultato a sorpresa nella MX2, che ha visto Jeffrey Herlings abdicare il gradino più alto del podio nientemeno che allo svizzero Valentin Guillod per colpa di una seconda manche andata tutta storta. Dopo aver vinto la prima nella seconda si è infatti ritrovato oltre la ventesima piazza a causa del taglio spropositato del rettilineo di avvio da parte di Dylan Ferrandis che lo ha costretto ad una difficile rimonta inframezzata da alcuni errori che si conclusa in settima posizione.

Via libera quindi al pilota del team Yamaha Standing Construct che oltre ad essersi diventato il paladino del caloroso pubblico per i suoi pazzeschi scrub ha corso due manche consistenti iniziate con un sesto posto e concluse con la vittoria di quella conclusiva e del GP davanti all’olandese. Terza piazza per Jordi Tixier che ha preceduto Max Anstie e Tim Gajser.

Nell’Europeo Marco Maddii ha chiuso 3° della 300, Simone Zecchina 9 ° della 250 e Davide Cislaghi 3° della 125.

Classifica

MXGP - Race 2 - Classification
Pos Nr Rider Nat. Fed. Bike Time laps Diff. First Diff. Prev. Bestlaptime in lap Speed
1 222 Cairoli, Antonio ITA FMI KTM 35:46.317 18 0:00.000 0:00.000 1:51.064 9 53
2 461 Febvre, Romain FRA FFM Yamaha 35:53.621 18 0:07.304 0:07.304 1:50.138 3 53
3 12 Nagl, Maximilian GER DMSB Husqvarna 35:59.630 18 0:13.313 0:06.009 1:51.552 5 52
4 777 Bobryshev, Evgeny RUS FSM Honda 36:05.832 18 0:19.515 0:06.202 1:52.149 3 52
5 25 Desalle, Clement BEL FMB Suzuki 36:07.935 18 0:21.618 0:02.103 1:52.174 4 52
6 24 Simpson, Shaun GBR ACU KTM 36:10.795 18 0:24.478 0:02.860 1:52.640 2 52
7 21 Paulin, Gautier FRA MCM Honda 36:31.410 18 0:45.093 0:20.615 1:52.379 9 52
8 28 Rattray, Tyla RSA MSA Kawasaki 36:41.639 18 0:55.322 0:10.229 1:53.563 4 51
9 77 Lupino, Alessandro ITA FMI Honda 36:45.394 18 0:59.077 0:03.755 1:53.897 5 51
10 121 Boog, Xavier FRA FFM Kawasaki 36:51.242 18 1:04.925 0:05.848 1:53.770 7 51
11 22 Strijbos, Kevin BEL FMB Suzuki 36:55.835 18 1:09.518 0:04.593 1:54.780 3 51
12 999 Goncalves, Rui POR FMP Husqvarna 36:57.161 18 1:10.844 0:01.326 1:55.129 4 51
13 17 Butron, Jose ESP RFME KTM 36:58.378 18 1:12.061 0:01.217 1:54.732 1 51
14 23 Charlier, Christophe FRA FFM Honda 37:02.726 18 1:16.409 0:04.348 1:55.215 5 51
15 259 Coldenhoff, Glenn NED KNMV Suzuki 37:05.937 18 1:19.620 0:03.211 1:55.110 13 51
16 111 Ferris, Dean AUS MA Husqvarna 37:09.650 18 1:23.333 0:03.713 1:53.945 8 51
17 183 Frossard, Steven FRA FFM KTM 37:28.220 18 1:41.903 0:18.570 1:54.274 4 51
18 9 de Dycker, Ken BEL FMB KTM 35:47.970 17 1 lap 1 lap 1:56.032 5 50
19 149 Ullrich, Dennis GER DMSB Suzuki 35:58.676 17 1 lap 0:10.706 1:56.358 7 50
20 400 Yamamoto, Kei JPN MFJ Honda 36:07.769 17 1 lap 0:09.093 1:56.956 5 50
21 47 Waters, Todd AUS MA Husqvarna 36:20.786 17 1 lap 0:13.017 1:56.948 3 50
22 11 Bengtsson, Filip SWE SVEMO Honda 37:21.411 17 1 lap 1:00.625 1:56.861 5 50
23 62 Gercar, Klemen SLO AMZS Husqvarna 37:31.189 17 1 lap 0:09.778 1:59.657 1 49
24 19 Philippaerts, David ITA FMI Yamaha 18:01.831 8 10 laps 9 laps 1:55.026 3 51
25 100 Searle, Tommy GBR ACU KTM 11:30.672 5 13 laps 3 laps 1:53.567 5 51

 

MX2 - Grand Prix Race 2 - Classification
Pos Nr Rider Nat. Fed. Bike Time laps Diff. First Diff. Prev. Bestlaptime in lap Speed
1 92 Guillod, Valentin SUI FMS Yamaha 34:33.751 17 0:00.000 0:00.000 1:53.548 16 51
2 243 Gajser, Tim SLO AMZS Honda 34:35.076 17 0:01.325 0:01.325 1:53.440 9 51
3 4 Ferrandis, Dylan FRA FFM Kawasaki 34:40.457 17 0:06.706 0:05.381 1:54.218 10 51
4 1 Tixier, Jordi FRA FFM Kawasaki 34:49.047 17 0:15.296 0:08.590 1:54.056 5 51
5 33 Lieber, Julien BEL FMB Yamaha 34:57.743 17 0:23.992 0:08.696 1:54.583 9 51
6 91 Seewer, Jeremy SUI FMS Suzuki 35:05.664 17 0:31.913 0:07.921 1:53.758 8 51
7 84 Herlings, Jeffrey NED KNMV KTM 35:09.893 17 0:36.142 0:04.229 1:53.795 15 51
8 59 Tonkov, Aleksandr RUS MFR Husqvarna 35:10.612 17 0:36.861 0:00.719 1:55.090 10 51
9 99 Anstie, Max GBR ACU Kawasaki 35:12.102 17 0:38.351 0:01.490 1:55.053 15 51
10 41 Jonass, Pauls LAT LAMSF KTM 35:22.483 17 0:48.732 0:10.381 1:56.012 5 50
11 152 Petrov, Petar BUL QMMF KTM 35:27.312 17 0:53.561 0:04.829 1:55.905 10 50
12 51 Getteman, Jens BEL FMB Honda 35:37.251 17 1:03.500 0:09.939 1:55.230 7 51
13 189 Bogers, Brian NED KNMV KTM 35:42.667 17 1:08.916 0:05.416 1:56.071 2 50
14 64 Covington, Thomas USA FFM Kawasaki 35:46.512 17 1:12.761 0:03.845 1:56.967 5 50
15 18 Brylyakov, Vsevolod RUS MFR Honda 35:48.380 17 1:14.629 0:01.868 1:56.453 7 50
16 128 Monticelli, Ivo ITA FMI KTM 35:50.863 17 1:17.112 0:02.483 1:57.219 5 50
17 101 Zaragoza, Jorge ESP RFME Honda 35:53.558 17 1:19.807 0:02.695 1:57.533 9 50
18 6 Paturel, Benoit FRA FFM Yamaha 36:17.650 17 1:43.899 0:24.092 1:56.158 11 50
19 172 Van doninck, Brent BEL FMB Yamaha 36:33.004 17 1:59.253 0:15.354 1:57.863 3 49
20 95 Justs, Roberts LAT LAMSF KTM 34:36.753 16 1 lap 1 lap 1:57.956 5 49
21 922 Fors, Kevin BEL FMB Yamaha 35:01.472 16 1 lap 0:24.719 1:59.461 9 49
22 300 Golovkin, Viacheslav RUS FMI KTM 35:34.001 16 1 lap 0:32.529 2:01.516 6 48
23 97 Ivanov, Maykal Grisha BUL QMMF Husqvarna 36:15.625 16 1 lap 0:41.624 2:03.336 15 47
24 373 Irsuti, Yannis FRA FFM Yamaha 36:30.532 16 1 lap 0:14.907 2:03.587 8 47
25 71 Valente, Christopher SUI FMS KTM 24:02.056 9 8 laps 7 laps 2:01.018 5 48

 

MXGP - Race 1 - Classification
Pos Nr Rider Nat. Fed. Bike Time laps Diff. First Diff. Prev. Bestlaptime in lap Speed
1 12 Nagl, Maximilian GER DMSB Husqvarna 35:12.010 18 0:00.000 0:00.000 1:49.685 5 53
2 25 Desalle, Clement BEL FMB Suzuki 35:16.440 18 0:04.430 0:04.430 1:49.498 7 53
3 222 Cairoli, Antonio ITA FMI KTM 35:34.580 18 0:22.570 0:18.140 1:50.082 7 53
4 461 Febvre, Romain FRA FFM Yamaha 35:43.862 18 0:31.852 0:09.282 1:50.879 5 53
5 21 Paulin, Gautier FRA MCM Honda 35:46.535 18 0:34.525 0:02.673 1:51.297 9 52
6 777 Bobryshev, Evgeny RUS FSM Honda 36:01.897 18 0:49.887 0:15.362 1:51.898 10 52
7 28 Rattray, Tyla RSA MSA Kawasaki 36:06.553 18 0:54.543 0:04.656 1:52.365 11 52
8 22 Strijbos, Kevin BEL FMB Suzuki 36:10.618 18 0:58.608 0:04.065 1:52.342 8 52
9 47 Waters, Todd AUS MA Husqvarna 36:12.591 18 1:00.581 0:01.973 1:52.309 5 52
10 183 Frossard, Steven FRA FFM KTM 36:16.654 18 1:04.644 0:04.063 1:52.544 6 52
11 100 Searle, Tommy GBR ACU KTM 36:18.384 18 1:06.374 0:01.730 1:52.475 8 52
12 121 Boog, Xavier FRA FFM Kawasaki 36:18.952 18 1:06.942 0:00.568 1:52.499 9 52
13 19 Philippaerts, David ITA FMI Yamaha 36:31.546 18 1:19.536 0:12.594 1:53.523 9 51
14 111 Ferris, Dean AUS MA Husqvarna 36:32.736 18 1:20.726 0:01.190 1:54.462 15 51
15 23 Charlier, Christophe FRA FFM Honda 36:33.600 18 1:21.590 0:00.864 1:53.149 3 52
16 77 Lupino, Alessandro ITA FMI Honda 36:35.062 18 1:23.052 0:01.462 1:53.417 4 51
17 17 Butron, Jose ESP RFME KTM 36:48.228 18 1:36.218 0:13.166 1:53.803 12 51
18 9 de Dycker, Ken BEL FMB KTM 36:51.591 18 1:39.581 0:03.363 1:53.424 4 51
19 259 Coldenhoff, Glenn NED KNMV Suzuki 36:53.947 18 1:41.937 0:02.356 1:53.821 8 51
20 24 Simpson, Shaun GBR ACU KTM 36:55.385 18 1:43.375 0:01.438 1:53.713 3 51
21 999 Goncalves, Rui POR FMP Husqvarna 36:56.757 18 1:44.747 0:01.372 1:55.323 15 51
22 149 Ullrich, Dennis GER DMSB Suzuki 35:23.115 17 1 lap 1 lap 1:54.570 6 51
23 400 Yamamoto, Kei JPN MFJ Honda 35:32.260 17 1 lap 0:09.145 1:55.342 6 51
24 62 Gercar, Klemen SLO AMZS Husqvarna 36:14.785 17 1 lap 0:42.525 1:56.355 4 50
25 11 Bengtsson, Filip SWE SVEMO Honda 19:29.371 9 9 laps 8 laps 1:53.829 2 51

 

MX2 - Grand Prix Race 1 - Classification
Pos Nr Rider Nat. Fed. Bike Time laps Diff. First Diff. Prev. Bestlaptime in lap Speed
1 84 Herlings, Jeffrey NED KNMV KTM 34:17.908 17 0:00.000 0:00.000 1:52.942 15 52
2 99 Anstie, Max GBR ACU Kawasaki 34:23.789 17 0:05.881 0:05.881 1:53.456 13 51
3 1 Tixier, Jordi FRA FFM Kawasaki 34:33.324 17 0:15.416 0:09.535 1:53.591 7 51
4 41 Jonass, Pauls LAT LAMSF KTM 34:37.455 17 0:19.547 0:04.131 1:54.053 7 51
5 59 Tonkov, Aleksandr RUS MFR Husqvarna 34:41.735 17 0:23.827 0:04.280 1:53.808 6 51
6 92 Guillod, Valentin SUI FMS Yamaha 34:44.779 17 0:26.871 0:03.044 1:53.190 10 52
7 172 Van doninck, Brent BEL FMB Yamaha 34:52.591 17 0:34.683 0:07.812 1:54.929 6 51
8 189 Bogers, Brian NED KNMV KTM 35:12.649 17 0:54.741 0:20.058 1:55.565 5 50
9 33 Lieber, Julien BEL FMB Yamaha 35:14.963 17 0:57.055 0:02.314 1:55.048 14 51
10 91 Seewer, Jeremy SUI FMS Suzuki 35:15.774 17 0:57.866 0:00.811 1:54.956 12 51
11 243 Gajser, Tim SLO AMZS Honda 35:17.306 17 0:59.398 0:01.532 1:54.712 12 51
12 18 Brylyakov, Vsevolod RUS MFR Honda 35:19.008 17 1:01.100 0:01.702 1:55.666 12 50
13 152 Petrov, Petar BUL QMMF KTM 35:19.730 17 1:01.822 0:00.722 1:55.606 12 50
14 64 Covington, Thomas USA FFM Kawasaki 35:27.127 17 1:09.219 0:07.397 1:55.768 16 50
15 6 Paturel, Benoit FRA FFM Yamaha 35:27.957 17 1:10.049 0:00.830 1:55.242 17 51
16 128 Monticelli, Ivo ITA FMI KTM 35:39.940 17 1:22.032 0:11.983 1:56.512 6 50
17 95 Justs, Roberts LAT LAMSF KTM 35:58.976 17 1:41.068 0:19.036 1:57.182 7 50
18 922 Fors, Kevin BEL FMB Yamaha 36:02.236 17 1:44.328 0:03.260 1:57.001 7 50
19 919 Watson, Ben GBR ACU KTM 36:06.584 17 1:48.676 0:04.348 1:58.079 11 49
20 97 Ivanov, Maykal Grisha BUL QMMF Husqvarna 34:35.710 16 1 lap 1 lap 1:59.498 10 49
21 51 Getteman, Jens BEL FMB Honda 34:49.428 16 1 lap 0:13.718 1:57.171 4 50
22 300 Golovkin, Viacheslav RUS FMI KTM 34:51.676 16 1 lap 0:02.248 2:00.584 12 48
23 71 Valente, Christopher SUI FMS KTM 35:27.577 16 1 lap 0:35.901 2:01.988 5 48
24 373 Irsuti, Yannis FRA FFM Yamaha 36:10.692 16 1 lap 0:43.115 2:01.844 3 48
25 321 Bernardini, Samuele ITA FMI TM 25:27.277 11 6 laps 5 laps 2:01.905 2 48
26 101 Zaragoza, Jorge ESP RFME Honda 23:22.376 10 7 laps 1 lap 1:59.201 7 49
27 4 Ferrandis, Dylan FRA FFM Kawasaki 2:03.375 0 17 laps 10 laps 0:00.000   0

 

MXGP - Championship Classification
Pos Nr Rider Nat. Bike Total QAT THA ARG ITA EUR ESP GBR FRA ITA GER SWE LAT CZE BEL TBA NED MEX USA
1 12 Nagl, M. GER HUS 259 25-25 18-10 20-25 22-25 22-22 25-20 - - - - - - - - - - - - - - - - - - - - - - - -
2 25 Desalle, C. BEL SUZ 247 22-22 22-22 25-20 20-18 18-20 22-16 - - - - - - - - - - - - - - - - - - - - - - - -
3 222 Cairoli, A. ITA KTM 229 20-18 16-25 22-22 25-22 0-14 20-25 - - - - - - - - - - - - - - - - - - - - - - - -
4 21 Paulin, G. FRA HON 208 18-20 14-15 15-14 16-16 25-25 16-14 - - - - - - - - - - - - - - - - - - - - - - - -
5 461 Febvre, Romain FRA YAM 196 15-14 20-18 13-15 14-20 11-16 18-22 - - - - - - - - - - - - - - - - - - - - - - - -
6 777 Bobryshev, E. RUS HON 171 13-12 11-9 16-11 13-15 20-18 15-18 - - - - - - - - - - - - - - - - - - - - - - - -
7 2 Villopoto, R. USA KAW 124 12-13 25-20 18-18 18-0 - - - - - - - - - - - - - - - - - - - - - - - - - - - -
8 24 Simpson, Shaun GBR KTM 114 14-7 10-7 6-3 9-11 16-15 1-15 - - - - - - - - - - - - - - - - - - - - - - - -
9 47 Waters, Todd AUS HUS 104 6-8 12-14 10-12 6-10 7-7 12-0 - - - - - - - - - - - - - - - - - - - - - - - -
10 28 Rattray, Tyla RSA KAW 95 4-5 13-13 4-1 - - 15-13 14-13 - - - - - - - - - - - - - - - - - - - - - - - -
11 259 Coldenhoff, G. NED SUZ 94 3-11 5-8 7-13 11-3 14-11 2-6 - - - - - - - - - - - - - - - - - - - - - - - -
12 9 de Dycker, Ken BEL KTM 84 2-6 0-0 9-10 12-14 13-12 3-3 - - - - - - - - - - - - - - - - - - - - - - - -
13 22 Strijbos, K. BEL SUZ 78 9-15 15-16 - - - - - - 13-10 - - - - - - - - - - - - - - - - - - - - - - - -
14 19 Philippaerts, D. ITA YAM 76 11-0 9-11 1-6 8-13 0-9 8-0 - - - - - - - - - - - - - - - - - - - - - - - -
15 89 Van Horebeek, J. BEL YAM 75 16-16 0-0 12-16 15-0 - - - - - - - - - - - - - - - - - - - - - - - - - - - -
16 39 Guarneri, D. ITA TM 70 8-9 6-5 11-9 10-12 0-0 - - - - - - - - - - - - - - - - - - - - - - - - - -
17 183 Frossard, S. FRA KTM 57 10-0 0-6 8-8 0-0 10-0 11-4 - - - - - - - - - - - - - - - - - - - - - - - -
18 111 Ferris, Dean AUS HUS 54 0-4 1-12 0-4 3-4 6-8 7-5 - - - - - - - - - - - - - - - - - - - - - - - -
19 17 Butron, Jose ESP KTM 50 7-10 8-0 2-2 0-0 5-4 4-8 - - - - - - - - - - - - - - - - - - - - - - - -
20 100 Searle, Tommy GBR KTM 49 5-0 0-0 - - 7-8 9-10 10-0 - - - - - - - - - - - - - - - - - - - - - - - -
21 23 Charlier, C. FRA HON 43 1-2 - - 14-5 5-0 0-3 6-7 - - - - - - - - - - - - - - - - - - - - - - - -
22 121 Boog, Xavier FRA KAW 34 - - - - - - 0-0 8-6 9-11 - - - - - - - - - - - - - - - - - - - - - - - -
23 999 Goncalves, Rui POR HUS 33 0-3 7-4 0-0 1-9 0-0 0-9 - - - - - - - - - - - - - - - - - - - - - - - -
24 77 Lupino, A. ITA HON 30 0-0 0-0 0-0 0-7 4-2 5-12 - - - - - - - - - - - - - - - - - - - - - - - -
25 11 Bengtsson, F. SWE HON 27 0-1 0-1 3-0 4-6 12-0 0-0 - - - - - - - - - - - - - - - - - - - - - - - -
26 991 Watson, Nathan GBR HUS 12 0-0 0-0 5-7 - - - - - - - - - - - - - - - - - - - - - - - - - - - - - -
27 40 Leok, Tanel EST KAW 9 - - - - - - 0-1 3-5 - - - - - - - - - - - - - - - - - - - - - - - - - -
28 177 Coates, Paul GBR YAM 7 0-0 4-3 - - - - - - - - - - - - - - - - - - - - - - - - - - - - - - - -
29 400 Yamamoto, Kei JPN HON 6 0-0 3-2 0-0 0-0 0-0 0-1 - - - - - - - - - - - - - - - - - - - - - - - -
30 20 Aranda, G. FRA KAW 5 - - - - - - 0-5 - - - - - - - - - - - - - - - - - - - - - - - - - - - -
31 120 Soubeyras, C. FRA YAM 4 - - - - - - 2-2 - - - - - - - - - - - - - - - - - - - - - - - - - - - -
32 149 Ullrich, D. GER SUZ 4 - - - - - - 0-0 1-1 0-2 - - - - - - - - - - - - - - - - - - - - - - - -
33 156 Heidecke, A. GER KTM 2 - - - - - - 0-0 2-0 - - - - - - - - - - - - - - - - - - - - - - - - - -
34 123 Hoshino, Y. JPN KTM 2 - - 2-0 - - - - - - - - - - - - - - - - - - - - - - - - - - - - - - - -

 

MX2 - World Championship Classification
Pos Nr Rider Nat. Bike Total QAT THA ARG ITA EUR ESP GBR FRA ITA GER SWE LAT CZE BEL TBA NED MEX USA
1 84 Herlings, J. NED KTM 261 25-25 25-25 0-25 25-22 25-25 25-14 - - - - - - - - - - - - - - - - - - - - - - - -
2 4 Ferrandis, D. FRA KAW 205 22-16 22-18 25-22 16-18 18-8 0-20 - - - - - - - - - - - - - - - - - - - - - - - -
3 41 Jonass, Pauls LAT KTM 177 12-18 18-22 22-20 12-9 0-15 18-11 - - - - - - - - - - - - - - - - - - - - - - - -
4 243 Gajser, Tim SLO HON 169 18-14 20-0 9-18 22-25 4-7 10-22 - - - - - - - - - - - - - - - - - - - - - - - -
5 92 Guillod, V. SUI YAM 169 13-15 15-15 15-0 15-13 10-18 15-25 - - - - - - - - - - - - - - - - - - - - - - - -
6 59 Tonkov, A. RUS HUS 162 11-20 12-13 11-15 13-0 16-22 16-13 - - - - - - - - - - - - - - - - - - - - - - - -
7 1 Tixier, Jordi FRA KAW 153 15-12 8-0 - - 20-20 20-20 20-18 - - - - - - - - - - - - - - - - - - - - - - - -
8 91 Seewer, Jeremy SUI SUZ 151 16-13 9-0 16-16 14-15 12-14 11-15 - - - - - - - - - - - - - - - - - - - - - - - -
9 33 Lieber, Julien BEL YAM 149 20-22 0-20 18-0 11-10 14-6 12-16 - - - - - - - - - - - - - - - - - - - - - - - -
10 99 Anstie, Max GBR KAW 123 14-1 - - 20-0 18-14 22-0 22-12 - - - - - - - - - - - - - - - - - - - - - - - -
11 64 Covington, T. USA KAW 116 10-11 16-16 14-14 0-5 7-9 7-7 - - - - - - - - - - - - - - - - - - - - - - - -
12 189 Bogers, Brian NED KTM 109 3-0 10-10 6-13 3-12 15-16 13-8 - - - - - - - - - - - - - - - - - - - - - - - -
13 152 Petrov, Petar BUL KTM 101 8-10 11-12 7-9 7-6 13-0 8-10 - - - - - - - - - - - - - - - - - - - - - - - -
14 6 Paturel, B. FRA YAM 85 5-0 14-0 13-3 9-16 5-11 6-3 - - - - - - - - - - - - - - - - - - - - - - - -
15 172 Van doninck, B. BEL YAM 72 - - - - 12-0 10-11 11-12 14-2 - - - - - - - - - - - - - - - - - - - - - - - -
16 18 Brylyakov, V. RUS HON 68 4-9 0-6 8-7 8-0 8-3 9-6 - - - - - - - - - - - - - - - - - - - - - - - -
17 51 Getteman, Jens BEL HON 67 6-8 2-9 0-11 0-0 9-13 0-9 - - - - - - - - - - - - - - - - - - - - - - - -
18 95 Justs, Roberts LAT KTM 62 1-6 7-11 3-6 6-4 3-10 4-1 - - - - - - - - - - - - - - - - - - - - - - - -
19 128 Monticelli, I. ITA KTM 60 7-7 6-0 0-12 5-8 1-4 5-5 - - - - - - - - - - - - - - - - - - - - - - - -
20 119 Pocock, Mel GBR KAW 36 9-0 13-14 - - - - - - - - - - - - - - - - - - - - - - - - - - - - - - - -
21 274 Lundgren, A. SWE HUS 26 2-0 4-8 4-5 0-3 0-0 - - - - - - - - - - - - - - - - - - - - - - - - - -
22 919 Watson, Ben GBR KTM 23 0-0 0-2 5-8 4-0 0-2 2-0 - - - - - - - - - - - - - - - - - - - - - - - -
23 811 Sterry, Adam GBR KTM 20 - - - - 10-10 - - - - - - - - - - - - - - - - - - - - - - - - - - - - - -
24 300 Golovkin, V. RUS KTM 17 0-4 3-7 1-2 0-0 0-0 0-0 - - - - - - - - - - - - - - - - - - - - - - - -
25 151 Kullas, Harri FIN SUZ 11 - - - - - - - - 6-5 - - - - - - - - - - - - - - - - - - - - - - - - - -
26 155 Otsuka, Gota JPN HON 10 - - 5-5 - - - - - - - - - - - - - - - - - - - - - - - - - - - - - - - -
27 29 Jacobi, Henry GER KTM 9 - - - - - - 2-7 - - - - - - - - - - - - - - - - - - - - - - - - - - - -
28 555 Guryev, Artem RUS KTM 7 0-3 0-4 0-0 0-0 0-0 - - - - - - - - - - - - - - - - - - - - - - - - - -
29 338 Herbreteau, D. FRA KAW 6 - - - - 2-4 - - - - - - - - - - - - - - - - - - - - - - - - - - - - - -
30 93 Featherstone, G. GBR HON 5 0-5 0-0 - - - - 0-0 - - - - - - - - - - - - - - - - - - - - - - - - - -
31 922 Fors, Kevin BEL YAM 5 - - - - - - 0-0 2-0 3-0 - - - - - - - - - - - - - - - - - - - - - - - -
32 101 Zaragoza, J. ESP HON 4 - - - - - - - - - - 0-4 - - - - - - - - - - - - - - - - - - - - - - - -
33 71 Valente, C. SUI KTM 4 0-0 1-3 0-0 0-0 0-0 0-0 - - - - - - - - - - - - - - - - - - - - - - - -
34 211 Jaulin, S. FRA HON 3 - - - - - - 1-2 - - - - - - - - - - - - - - - - - - - - - - - - - - - -
35 7 Graulus, Damon BEL YAM 2 0-2 0-0 - - - - - - - - - - - - - - - - - - - - - - - - - - - - - - - -
36 97 Ivanov, M. BUL HUS 1 - - - - - - 0-0 0-0 1-0 - - - - - - - - - - - - - - - - - - - - - - - -
37 140 Booker, Jordan GBR KTM 1 - - - - - - - - 0-1 - - - - - - - - - - - - - - - - - - - - - - - - - -
38 171 Penjan, T. THA HON 1 - - 0-1 - - - - - - - - - - - - - - - - - - - - - - - - - - - - - - - -
39 556 Mallet, Simon FRA HON 1 - - - - - - 0-1 - - - - - - - - - - - - - - - - - - - - - - - - - - - -
40 117 Luzzardi, J. ARG HON 1 - - - - 0-1 - - - - - - - - - - - - - - - - - - - - - - - - - - - - - -
 

Ultime da Motocross

Da Automoto.it

Caricamento commenti...